sensor_id;sensor_type;location;lat;lon;timestamp;P1;durP1;ratioP1;P2;durP2;ratioP2
41881;SDS011;27562;47.524;12.404;2022-09-09T00:02:21;3.17;;;0.70;;
41881;SDS011;27562;47.524;12.404;2022-09-09T00:10:16;1.63;;;0.68;;
41881;SDS011;27562;47.524;12.404;2022-09-09T00:21:54;3.53;;;0.90;;
41881;SDS011;27562;47.524;12.404;2022-09-09T00:24:38;2.35;;;0.70;;
41881;SDS011;27562;47.524;12.404;2022-09-09T00:27:31;1.25;;;0.70;;
41881;SDS011;27562;47.524;12.404;2022-09-09T00:30:19;1.63;;;0.68;;
41881;SDS011;27562;47.524;12.404;2022-09-09T00:32:49;1.23;;;0.60;;
41881;SDS011;27562;47.524;12.404;2022-09-09T00:37:52;2.08;;;0.60;;
41881;SDS011;27562;47.524;12.404;2022-09-09T00:40:26;2.15;;;0.80;;
41881;SDS011;27562;47.524;12.404;2022-09-09T00:45:54;2.25;;;0.85;;
41881;SDS011;27562;47.524;12.404;2022-09-09T00:48:22;3.63;;;0.88;;
41881;SDS011;27562;47.524;12.404;2022-09-09T00:50:57;2.58;;;0.80;;
41881;SDS011;27562;47.524;12.404;2022-09-09T00:56:21;1.70;;;0.85;;
41881;SDS011;27562;47.524;12.404;2022-09-09T01:01:35;3.03;;;0.68;;
41881;SDS011;27562;47.524;12.404;2022-09-09T01:04:01;2.55;;;0.70;;
41881;SDS011;27562;47.524;12.404;2022-09-09T01:06:36;1.48;;;0.77;;
41881;SDS011;27562;47.524;12.404;2022-09-09T01:14:45;2.03;;;0.90;;
41881;SDS011;27562;47.524;12.404;2022-09-09T01:28:16;2.25;;;1.00;;
41881;SDS011;27562;47.524;12.404;2022-09-09T01:30:44;2.38;;;0.98;;
41881;SDS011;27562;47.524;12.404;2022-09-09T01:33:12;2.13;;;0.90;;
41881;SDS011;27562;47.524;12.404;2022-09-09T01:38:09;3.08;;;1.13;;
41881;SDS011;27562;47.524;12.404;2022-09-09T01:40:35;2.67;;;1.00;;
41881;SDS011;27562;47.524;12.404;2022-09-09T01:43:01;1.08;;;0.70;;
41881;SDS011;27562;47.524;12.404;2022-09-09T01:45:28;1.13;;;0.70;;
41881;SDS011;27562;47.524;12.404;2022-09-09T01:47:55;1.95;;;0.80;;
41881;SDS011;27562;47.524;12.404;2022-09-09T01:50:21;2.45;;;1.00;;
41881;SDS011;27562;47.524;12.404;2022-09-09T01:52:49;2.63;;;0.88;;
41881;SDS011;27562;47.524;12.404;2022-09-09T01:55:18;2.03;;;0.80;;
41881;SDS011;27562;47.524;12.404;2022-09-09T01:58:08;1.40;;;0.85;;
41881;SDS011;27562;47.524;12.404;2022-09-09T02:00:35;3.72;;;1.10;;
41881;SDS011;27562;47.524;12.404;2022-09-09T02:03:25;2.15;;;1.02;;
41881;SDS011;27562;47.524;12.404;2022-09-09T02:08:30;3.40;;;1.20;;
41881;SDS011;27562;47.524;12.404;2022-09-09T02:13:40;2.05;;;0.88;;
41881;SDS011;27562;47.524;12.404;2022-09-09T02:16:18;2.53;;;1.08;;
41881;SDS011;27562;47.524;12.404;2022-09-09T02:19:11;1.88;;;1.10;;
41881;SDS011;27562;47.524;12.404;2022-09-09T02:21:42;2.42;;;1.00;;
41881;SDS011;27562;47.524;12.404;2022-09-09T02:24:10;1.85;;;1.08;;
41881;SDS011;27562;47.524;12.404;2022-09-09T02:26:40;1.63;;;0.80;;
41881;SDS011;27562;47.524;12.404;2022-09-09T02:29:11;1.80;;;0.82;;
41881;SDS011;27562;47.524;12.404;2022-09-09T02:31:58;2.05;;;1.10;;
41881;SDS011;27562;47.524;12.404;2022-09-09T02:34:28;2.53;;;1.40;;
41881;SDS011;27562;47.524;12.404;2022-09-09T02:36:56;5.63;;;2.05;;
41881;SDS011;27562;47.524;12.404;2022-09-09T02:39:24;3.20;;;1.90;;
41881;SDS011;27562;47.524;12.404;2022-09-09T02:41:50;3.05;;;1.58;;
41881;SDS011;27562;47.524;12.404;2022-09-09T02:44:17;1.85;;;1.13;;
41881;SDS011;27562;47.524;12.404;2022-09-09T02:54:27;3.50;;;1.00;;
41881;SDS011;27562;47.524;12.404;2022-09-09T02:56:55;1.50;;;0.80;;
41881;SDS011;27562;47.524;12.404;2022-09-09T02:59:41;2.75;;;1.20;;
41881;SDS011;27562;47.524;12.404;2022-09-09T03:02:08;2.92;;;1.27;;
41881;SDS011;27562;47.524;12.404;2022-09-09T03:04:36;2.22;;;1.10;;
41881;SDS011;27562;47.524;12.404;2022-09-09T03:07:03;3.30;;;1.60;;
41881;SDS011;27562;47.524;12.404;2022-09-09T03:09:29;5.00;;;1.40;;
41881;SDS011;27562;47.524;12.404;2022-09-09T03:11:55;1.48;;;0.90;;
41881;SDS011;27562;47.524;12.404;2022-09-09T03:14:22;3.70;;;1.20;;
41881;SDS011;27562;47.524;12.404;2022-09-09T03:16:50;3.28;;;1.30;;
41881;SDS011;27562;47.524;12.404;2022-09-09T03:19:17;2.53;;;1.25;;
41881;SDS011;27562;47.524;12.404;2022-09-09T03:21:43;2.25;;;1.20;;
41881;SDS011;27562;47.524;12.404;2022-09-09T03:24:10;2.88;;;1.35;;
41881;SDS011;27562;47.524;12.404;2022-09-09T03:26:36;2.20;;;1.17;;
41881;SDS011;27562;47.524;12.404;2022-09-09T03:29:03;1.98;;;0.98;;
41881;SDS011;27562;47.524;12.404;2022-09-09T03:31:31;2.65;;;1.10;;
41881;SDS011;27562;47.524;12.404;2022-09-09T03:33:57;3.50;;;1.17;;
41881;SDS011;27562;47.524;12.404;2022-09-09T03:36:24;2.67;;;0.80;;
41881;SDS011;27562;47.524;12.404;2022-09-09T03:38:53;3.55;;;1.20;;
41881;SDS011;27562;47.524;12.404;2022-09-09T03:41:20;2.53;;;1.10;;
41881;SDS011;27562;47.524;12.404;2022-09-09T03:43:48;2.85;;;1.00;;
41881;SDS011;27562;47.524;12.404;2022-09-09T03:46:15;2.80;;;1.10;;
41881;SDS011;27562;47.524;12.404;2022-09-09T03:48:40;2.63;;;1.10;;
41881;SDS011;27562;47.524;12.404;2022-09-09T03:51:06;2.50;;;1.10;;
41881;SDS011;27562;47.524;12.404;2022-09-09T03:53:32;1.60;;;0.77;;
41881;SDS011;27562;47.524;12.404;2022-09-09T03:55:58;2.78;;;1.00;;
41881;SDS011;27562;47.524;12.404;2022-09-09T03:58:25;2.08;;;0.82;;
41881;SDS011;27562;47.524;12.404;2022-09-09T04:00:55;2.08;;;1.30;;
41881;SDS011;27562;47.524;12.404;2022-09-09T04:03:22;1.50;;;0.88;;
41881;SDS011;27562;47.524;12.404;2022-09-09T04:05:50;2.97;;;1.20;;
41881;SDS011;27562;47.524;12.404;2022-09-09T04:08:16;1.92;;;0.77;;
41881;SDS011;27562;47.524;12.404;2022-09-09T04:10:47;2.40;;;0.85;;
41881;SDS011;27562;47.524;12.404;2022-09-09T04:13:17;3.15;;;1.48;;
41881;SDS011;27562;47.524;12.404;2022-09-09T04:15:43;3.20;;;1.10;;
41881;SDS011;27562;47.524;12.404;2022-09-09T04:18:14;3.33;;;1.35;;
41881;SDS011;27562;47.524;12.404;2022-09-09T04:20:40;2.88;;;1.50;;
41881;SDS011;27562;47.524;12.404;2022-09-09T04:23:08;2.85;;;1.30;;
41881;SDS011;27562;47.524;12.404;2022-09-09T04:25:34;2.78;;;1.10;;
41881;SDS011;27562;47.524;12.404;2022-09-09T04:27:59;3.05;;;1.25;;
41881;SDS011;27562;47.524;12.404;2022-09-09T04:30:25;5.10;;;1.30;;
41881;SDS011;27562;47.524;12.404;2022-09-09T04:32:52;3.97;;;1.55;;
41881;SDS011;27562;47.524;12.404;2022-09-09T04:35:18;5.15;;;1.60;;
41881;SDS011;27562;47.524;12.404;2022-09-09T04:37:45;5.57;;;1.67;;
41881;SDS011;27562;47.524;12.404;2022-09-09T04:40:11;15.25;;;5.82;;
41881;SDS011;27562;47.524;12.404;2022-09-09T04:42:37;13.00;;;4.85;;
41881;SDS011;27562;47.524;12.404;2022-09-09T04:45:03;7.30;;;3.33;;
41881;SDS011;27562;47.524;12.404;2022-09-09T04:47:30;6.20;;;2.28;;
41881;SDS011;27562;47.524;12.404;2022-09-09T04:49:56;3.78;;;1.70;;
41881;SDS011;27562;47.524;12.404;2022-09-09T04:52:22;4.30;;;1.70;;
41881;SDS011;27562;47.524;12.404;2022-09-09T04:54:47;3.53;;;1.50;;
41881;SDS011;27562;47.524;12.404;2022-09-09T04:57:13;3.30;;;1.75;;
41881;SDS011;27562;47.524;12.404;2022-09-09T04:59:39;4.25;;;1.63;;
41881;SDS011;27562;47.524;12.404;2022-09-09T05:02:05;2.25;;;1.23;;
41881;SDS011;27562;47.524;12.404;2022-09-09T05:04:31;3.70;;;1.75;;
41881;SDS011;27562;47.524;12.404;2022-09-09T05:06:58;4.15;;;1.48;;
41881;SDS011;27562;47.524;12.404;2022-09-09T05:09:24;2.97;;;1.65;;
41881;SDS011;27562;47.524;12.404;2022-09-09T05:11:50;4.38;;;1.58;;
41881;SDS011;27562;47.524;12.404;2022-09-09T05:14:16;5.78;;;1.60;;
41881;SDS011;27562;47.524;12.404;2022-09-09T05:16:44;3.30;;;1.25;;
41881;SDS011;27562;47.524;12.404;2022-09-09T05:19:10;2.55;;;1.23;;
41881;SDS011;27562;47.524;12.404;2022-09-09T05:21:36;3.35;;;1.35;;
41881;SDS011;27562;47.524;12.404;2022-09-09T05:24:03;3.40;;;1.38;;
41881;SDS011;27562;47.524;12.404;2022-09-09T05:26:29;2.72;;;1.20;;
41881;SDS011;27562;47.524;12.404;2022-09-09T05:28:55;2.40;;;1.13;;
41881;SDS011;27562;47.524;12.404;2022-09-09T05:31:22;2.60;;;1.35;;
41881;SDS011;27562;47.524;12.404;2022-09-09T05:33:47;2.72;;;1.15;;
41881;SDS011;27562;47.524;12.404;2022-09-09T05:36:15;4.40;;;1.05;;
41881;SDS011;27562;47.524;12.404;2022-09-09T05:38:42;2.65;;;1.30;;
41881;SDS011;27562;47.524;12.404;2022-09-09T05:41:10;3.35;;;1.83;;
41881;SDS011;27562;47.524;12.404;2022-09-09T05:43:36;4.10;;;1.90;;
41881;SDS011;27562;47.524;12.404;2022-09-09T05:46:04;5.65;;;2.00;;
41881;SDS011;27562;47.524;12.404;2022-09-09T05:48:31;4.85;;;1.83;;
41881;SDS011;27562;47.524;12.404;2022-09-09T05:50:58;2.95;;;1.40;;
41881;SDS011;27562;47.524;12.404;2022-09-09T05:53:28;3.60;;;1.30;;
41881;SDS011;27562;47.524;12.404;2022-09-09T05:56:06;3.35;;;2.15;;
41881;SDS011;27562;47.524;12.404;2022-09-09T05:58:50;4.60;;;2.10;;
41881;SDS011;27562;47.524;12.404;2022-09-09T06:01:21;2.83;;;1.80;;
41881;SDS011;27562;47.524;12.404;2022-09-09T06:03:52;3.20;;;1.60;;
41881;SDS011;27562;47.524;12.404;2022-09-09T06:06:22;3.47;;;1.50;;
41881;SDS011;27562;47.524;12.404;2022-09-09T06:08:52;2.83;;;1.48;;
41881;SDS011;27562;47.524;12.404;2022-09-09T06:11:20;3.08;;;1.80;;
41881;SDS011;27562;47.524;12.404;2022-09-09T06:13:48;4.05;;;1.88;;
41881;SDS011;27562;47.524;12.404;2022-09-09T06:16:18;2.20;;;1.27;;
41881;SDS011;27562;47.524;12.404;2022-09-09T06:18:48;3.33;;;1.67;;
41881;SDS011;27562;47.524;12.404;2022-09-09T06:21:18;2.60;;;1.38;;
41881;SDS011;27562;47.524;12.404;2022-09-09T06:23:55;3.80;;;1.65;;
41881;SDS011;27562;47.524;12.404;2022-09-09T06:26:25;2.75;;;1.40;;
41881;SDS011;27562;47.524;12.404;2022-09-09T06:28:53;2.35;;;1.20;;
41881;SDS011;27562;47.524;12.404;2022-09-09T06:31:21;2.80;;;1.45;;
41881;SDS011;27562;47.524;12.404;2022-09-09T06:33:52;2.17;;;1.20;;
41881;SDS011;27562;47.524;12.404;2022-09-09T06:36:20;2.28;;;1.33;;
41881;SDS011;27562;47.524;12.404;2022-09-09T06:38:47;2.30;;;1.17;;
41881;SDS011;27562;47.524;12.404;2022-09-09T06:41:14;3.30;;;1.38;;
41881;SDS011;27562;47.524;12.404;2022-09-09T06:43:41;2.88;;;1.52;;
41881;SDS011;27562;47.524;12.404;2022-09-09T06:48:36;2.10;;;1.20;;
41881;SDS011;27562;47.524;12.404;2022-09-09T06:51:37;3.92;;;1.77;;
41881;SDS011;27562;47.524;12.404;2022-09-09T06:53:57;2.50;;;1.50;;
41881;SDS011;27562;47.524;12.404;2022-09-09T06:56:32;3.35;;;1.45;;
41881;SDS011;27562;47.524;12.404;2022-09-09T06:59:06;2.83;;;1.50;;
41881;SDS011;27562;47.524;12.404;2022-09-09T07:01:37;3.53;;;1.80;;
41881;SDS011;27562;47.524;12.404;2022-09-09T07:04:08;3.67;;;1.92;;
41881;SDS011;27562;47.524;12.404;2022-09-09T07:06:43;2.78;;;1.45;;
41881;SDS011;27562;47.524;12.404;2022-09-09T07:09:11;3.60;;;1.42;;
41881;SDS011;27562;47.524;12.404;2022-09-09T07:11:39;3.25;;;1.60;;
41881;SDS011;27562;47.524;12.404;2022-09-09T07:14:06;3.13;;;1.35;;
41881;SDS011;27562;47.524;12.404;2022-09-09T07:16:33;4.28;;;1.60;;
41881;SDS011;27562;47.524;12.404;2022-09-09T07:19:02;2.78;;;1.60;;
41881;SDS011;27562;47.524;12.404;2022-09-09T07:21:29;2.58;;;1.50;;
41881;SDS011;27562;47.524;12.404;2022-09-09T07:23:56;3.13;;;1.48;;
41881;SDS011;27562;47.524;12.404;2022-09-09T07:26:24;2.20;;;1.40;;
41881;SDS011;27562;47.524;12.404;2022-09-09T07:28:51;2.67;;;1.48;;
41881;SDS011;27562;47.524;12.404;2022-09-09T07:31:21;3.00;;;1.60;;
41881;SDS011;27562;47.524;12.404;2022-09-09T07:33:49;4.55;;;1.90;;
41881;SDS011;27562;47.524;12.404;2022-09-09T07:36:18;4.45;;;2.25;;
41881;SDS011;27562;47.524;12.404;2022-09-09T07:38:56;5.03;;;2.40;;
41881;SDS011;27562;47.524;12.404;2022-09-09T07:41:28;2.92;;;1.70;;
41881;SDS011;27562;47.524;12.404;2022-09-09T07:43:59;4.75;;;2.40;;
41881;SDS011;27562;47.524;12.404;2022-09-09T07:46:29;4.15;;;1.77;;
41881;SDS011;27562;47.524;12.404;2022-09-09T07:48:55;3.65;;;1.80;;
41881;SDS011;27562;47.524;12.404;2022-09-09T07:51:23;4.63;;;1.80;;
41881;SDS011;27562;47.524;12.404;2022-09-09T07:53:56;2.60;;;1.58;;
41881;SDS011;27562;47.524;12.404;2022-09-09T07:56:23;3.45;;;1.58;;
41881;SDS011;27562;47.524;12.404;2022-09-09T07:58:51;2.95;;;1.88;;
41881;SDS011;27562;47.524;12.404;2022-09-09T08:04:05;2.70;;;1.42;;
41881;SDS011;27562;47.524;12.404;2022-09-09T08:06:35;3.50;;;1.90;;
41881;SDS011;27562;47.524;12.404;2022-09-09T08:09:03;2.35;;;1.40;;
41881;SDS011;27562;47.524;12.404;2022-09-09T08:11:29;2.45;;;1.30;;
41881;SDS011;27562;47.524;12.404;2022-09-09T08:13:55;2.78;;;1.63;;
41881;SDS011;27562;47.524;12.404;2022-09-09T08:16:25;2.38;;;1.20;;
41881;SDS011;27562;47.524;12.404;2022-09-09T08:21:28;2.42;;;1.40;;
41881;SDS011;27562;47.524;12.404;2022-09-09T08:23:57;2.55;;;1.30;;
41881;SDS011;27562;47.524;12.404;2022-09-09T08:26:31;2.28;;;1.27;;
41881;SDS011;27562;47.524;12.404;2022-09-09T08:28:59;4.68;;;1.33;;
41881;SDS011;27562;47.524;12.404;2022-09-09T08:33:53;4.70;;;1.20;;
41881;SDS011;27562;47.524;12.404;2022-09-09T08:36:21;2.13;;;1.27;;
41881;SDS011;27562;47.524;12.404;2022-09-09T08:38:49;3.25;;;1.52;;
41881;SDS011;27562;47.524;12.404;2022-09-09T08:47:00;2.53;;;1.42;;
41881;SDS011;27562;47.524;12.404;2022-09-09T08:52:28;3.25;;;1.50;;
41881;SDS011;27562;47.524;12.404;2022-09-09T08:55:03;6.47;;;1.70;;
41881;SDS011;27562;47.524;12.404;2022-09-09T08:57:50;2.95;;;1.45;;
41881;SDS011;27562;47.524;12.404;2022-09-09T09:00:19;3.97;;;1.70;;
41881;SDS011;27562;47.524;12.404;2022-09-09T09:03:04;5.70;;;1.88;;
41881;SDS011;27562;47.524;12.404;2022-09-09T09:05:56;3.75;;;1.40;;
41881;SDS011;27562;47.524;12.404;2022-09-09T09:10:59;3.42;;;1.50;;
41881;SDS011;27562;47.524;12.404;2022-09-09T09:15:58;5.05;;;1.55;;
41881;SDS011;27562;47.524;12.404;2022-09-09T09:18:29;2.42;;;1.15;;
41881;SDS011;27562;47.524;12.404;2022-09-09T09:20:58;3.42;;;1.23;;
41881;SDS011;27562;47.524;12.404;2022-09-09T09:23:51;2.40;;;1.17;;
41881;SDS011;27562;47.524;12.404;2022-09-09T09:26:24;2.63;;;1.27;;
41881;SDS011;27562;47.524;12.404;2022-09-09T09:28:55;5.53;;;1.50;;
41881;SDS011;27562;47.524;12.404;2022-09-09T09:31:24;2.67;;;1.20;;
41881;SDS011;27562;47.524;12.404;2022-09-09T09:33:55;3.17;;;1.40;;
41881;SDS011;27562;47.524;12.404;2022-09-09T09:36:32;4.40;;;1.70;;
41881;SDS011;27562;47.524;12.404;2022-09-09T09:39:29;3.30;;;1.33;;
41881;SDS011;27562;47.524;12.404;2022-09-09T09:41:56;2.30;;;1.42;;
41881;SDS011;27562;47.524;12.404;2022-09-09T09:44:30;2.40;;;1.40;;
41881;SDS011;27562;47.524;12.404;2022-09-09T09:49:39;2.33;;;1.20;;
41881;SDS011;27562;47.524;12.404;2022-09-09T09:52:30;2.97;;;1.40;;
41881;SDS011;27562;47.524;12.404;2022-09-09T09:54:57;2.60;;;1.42;;
41881;SDS011;27562;47.524;12.404;2022-09-09T09:57:28;2.65;;;1.20;;
41881;SDS011;27562;47.524;12.404;2022-09-09T10:02:50;4.60;;;2.10;;
41881;SDS011;27562;47.524;12.404;2022-09-09T10:05:21;5.72;;;2.50;;
41881;SDS011;27562;47.524;12.404;2022-09-09T10:19:13;3.35;;;1.90;;
41881;SDS011;27562;47.524;12.404;2022-09-09T10:24:49;3.90;;;2.10;;
41881;SDS011;27562;47.524;12.404;2022-09-09T10:32:49;3.70;;;1.52;;
41881;SDS011;27562;47.524;12.404;2022-09-09T10:35:44;2.00;;;1.10;;
41881;SDS011;27562;47.524;12.404;2022-09-09T10:38:39;2.38;;;1.00;;
41881;SDS011;27562;47.524;12.404;2022-09-09T10:46:35;3.03;;;1.10;;
41881;SDS011;27562;47.524;12.404;2022-09-09T10:49:05;1.73;;;0.82;;
41881;SDS011;27562;47.524;12.404;2022-09-09T10:51:45;1.60;;;0.90;;
41881;SDS011;27562;47.524;12.404;2022-09-09T10:54:25;2.40;;;0.88;;
41881;SDS011;27562;47.524;12.404;2022-09-09T10:57:21;5.13;;;1.00;;
41881;SDS011;27562;47.524;12.404;2022-09-09T10:59:54;1.70;;;0.80;;
41881;SDS011;27562;47.524;12.404;2022-09-09T11:02:31;2.08;;;0.98;;
41881;SDS011;27562;47.524;12.404;2022-09-09T11:07:44;3.03;;;1.00;;
41881;SDS011;27562;47.524;12.404;2022-09-09T11:10:44;1.80;;;0.80;;
41881;SDS011;27562;47.524;12.404;2022-09-09T11:13:24;2.50;;;1.10;;
41881;SDS011;27562;47.524;12.404;2022-09-09T11:15:53;2.20;;;1.02;;
41881;SDS011;27562;47.524;12.404;2022-09-09T11:18:35;3.42;;;1.05;;
41881;SDS011;27562;47.524;12.404;2022-09-09T11:21:05;1.98;;;0.82;;
41881;SDS011;27562;47.524;12.404;2022-09-09T11:23:42;3.15;;;1.05;;
41881;SDS011;27562;47.524;12.404;2022-09-09T11:26:14;2.03;;;0.90;;
41881;SDS011;27562;47.524;12.404;2022-09-09T11:28:55;3.47;;;1.50;;
41881;SDS011;27562;47.524;12.404;2022-09-09T11:32:27;2.65;;;1.30;;
41881;SDS011;27562;47.524;12.404;2022-09-09T11:34:44;2.10;;;1.40;;
41881;SDS011;27562;47.524;12.404;2022-09-09T11:40:30;3.88;;;1.15;;
41881;SDS011;27562;47.524;12.404;2022-09-09T11:43:14;3.35;;;1.50;;
41881;SDS011;27562;47.524;12.404;2022-09-09T11:45:50;4.95;;;1.50;;
41881;SDS011;27562;47.524;12.404;2022-09-09T11:48:27;3.10;;;1.10;;
41881;SDS011;27562;47.524;12.404;2022-09-09T11:51:12;3.22;;;1.50;;
41881;SDS011;27562;47.524;12.404;2022-09-09T11:53:57;2.38;;;1.60;;
41881;SDS011;27562;47.524;12.404;2022-09-09T11:56:46;3.00;;;1.48;;
41881;SDS011;27562;47.524;12.404;2022-09-09T11:59:28;2.63;;;1.48;;
41881;SDS011;27562;47.524;12.404;2022-09-09T12:04:38;1.70;;;1.02;;
41881;SDS011;27562;47.524;12.404;2022-09-09T12:09:42;3.28;;;1.40;;
41881;SDS011;27562;47.524;12.404;2022-09-09T12:14:56;1.70;;;0.80;;
41881;SDS011;27562;47.524;12.404;2022-09-09T12:17:28;4.70;;;1.08;;
41881;SDS011;27562;47.524;12.404;2022-09-09T12:25:16;1.48;;;0.75;;
41881;SDS011;27562;47.524;12.404;2022-09-09T12:33:33;3.75;;;1.10;;
41881;SDS011;27562;47.524;12.404;2022-09-09T12:36:00;1.42;;;0.82;;
41881;SDS011;27562;47.524;12.404;2022-09-09T12:38:39;2.45;;;0.77;;
41881;SDS011;27562;47.524;12.404;2022-09-09T12:41:06;1.30;;;0.80;;
41881;SDS011;27562;47.524;12.404;2022-09-09T12:43:45;2.15;;;0.80;;
41881;SDS011;27562;47.524;12.404;2022-09-09T12:46:15;1.80;;;0.82;;
41881;SDS011;27562;47.524;12.404;2022-09-09T12:48:58;1.92;;;0.90;;
41881;SDS011;27562;47.524;12.404;2022-09-09T12:51:26;2.65;;;1.10;;
41881;SDS011;27562;47.524;12.404;2022-09-09T12:53:54;3.10;;;1.00;;
41881;SDS011;27562;47.524;12.404;2022-09-09T12:56:21;1.58;;;0.93;;
41881;SDS011;27562;47.524;12.404;2022-09-09T12:58:52;2.60;;;1.27;;
41881;SDS011;27562;47.524;12.404;2022-09-09T13:01:22;3.05;;;1.20;;
41881;SDS011;27562;47.524;12.404;2022-09-09T13:03:58;1.73;;;0.90;;
41881;SDS011;27562;47.524;12.404;2022-09-09T13:06:26;2.97;;;1.20;;
41881;SDS011;27562;47.524;12.404;2022-09-09T13:08:59;1.77;;;1.00;;
41881;SDS011;27562;47.524;12.404;2022-09-09T13:11:37;2.28;;;1.10;;
41881;SDS011;27562;47.524;12.404;2022-09-09T13:14:14;2.67;;;1.00;;
41881;SDS011;27562;47.524;12.404;2022-09-09T13:16:58;2.30;;;1.00;;
41881;SDS011;27562;47.524;12.404;2022-09-09T13:19:25;1.98;;;0.80;;
41881;SDS011;27562;47.524;12.404;2022-09-09T13:21:54;1.88;;;0.95;;
41881;SDS011;27562;47.524;12.404;2022-09-09T13:24:41;1.30;;;0.60;;
41881;SDS011;27562;47.524;12.404;2022-09-09T13:27:22;4.20;;;0.80;;
41881;SDS011;27562;47.524;12.404;2022-09-09T13:29:52;2.33;;;0.70;;
41881;SDS011;27562;47.524;12.404;2022-09-09T13:32:22;1.65;;;0.60;;
41881;SDS011;27562;47.524;12.404;2022-09-09T13:34:55;1.08;;;0.60;;
41881;SDS011;27562;47.524;12.404;2022-09-09T13:37:26;1.05;;;0.70;;
41881;SDS011;27562;47.524;12.404;2022-09-09T13:39:55;3.08;;;0.73;;
41881;SDS011;27562;47.524;12.404;2022-09-09T13:42:28;3.15;;;0.80;;
41881;SDS011;27562;47.524;12.404;2022-09-09T13:44:56;1.63;;;0.70;;
41881;SDS011;27562;47.524;12.404;2022-09-09T13:47:43;2.00;;;0.90;;
41881;SDS011;27562;47.524;12.404;2022-09-09T13:52:51;2.25;;;0.90;;
41881;SDS011;27562;47.524;12.404;2022-09-09T13:55:18;1.40;;;0.65;;
41881;SDS011;27562;47.524;12.404;2022-09-09T13:57:50;2.10;;;0.70;;
41881;SDS011;27562;47.524;12.404;2022-09-09T14:00:20;2.78;;;0.73;;
41881;SDS011;27562;47.524;12.404;2022-09-09T14:02:46;2.22;;;0.70;;
41881;SDS011;27562;47.524;12.404;2022-09-09T14:05:16;1.00;;;0.60;;
41881;SDS011;27562;47.524;12.404;2022-09-09T14:07:43;2.22;;;0.70;;
41881;SDS011;27562;47.524;12.404;2022-09-09T14:10:10;1.77;;;0.80;;
41881;SDS011;27562;47.524;12.404;2022-09-09T14:12:36;2.38;;;0.63;;
41881;SDS011;27562;47.524;12.404;2022-09-09T14:15:03;0.95;;;0.50;;
41881;SDS011;27562;47.524;12.404;2022-09-09T14:17:30;1.95;;;0.65;;
41881;SDS011;27562;47.524;12.404;2022-09-09T14:19:56;1.55;;;0.60;;
41881;SDS011;27562;47.524;12.404;2022-09-09T14:22:22;1.60;;;0.60;;
41881;SDS011;27562;47.524;12.404;2022-09-09T14:24:49;0.75;;;0.47;;
41881;SDS011;27562;47.524;12.404;2022-09-09T14:27:16;1.30;;;0.80;;
41881;SDS011;27562;47.524;12.404;2022-09-09T14:29:43;1.35;;;0.70;;
41881;SDS011;27562;47.524;12.404;2022-09-09T14:32:09;1.35;;;0.60;;
41881;SDS011;27562;47.524;12.404;2022-09-09T14:34:36;1.30;;;0.50;;
41881;SDS011;27562;47.524;12.404;2022-09-09T14:37:02;1.58;;;0.60;;
41881;SDS011;27562;47.524;12.404;2022-09-09T14:39:28;1.95;;;0.70;;
41881;SDS011;27562;47.524;12.404;2022-09-09T14:41:53;0.70;;;0.43;;
41881;SDS011;27562;47.524;12.404;2022-09-09T14:44:20;1.48;;;0.70;;
41881;SDS011;27562;47.524;12.404;2022-09-09T14:46:46;1.40;;;0.50;;
41881;SDS011;27562;47.524;12.404;2022-09-09T14:49:11;0.75;;;0.47;;
41881;SDS011;27562;47.524;12.404;2022-09-09T14:51:38;1.15;;;0.63;;
41881;SDS011;27562;47.524;12.404;2022-09-09T14:54:04;1.10;;;0.50;;
41881;SDS011;27562;47.524;12.404;2022-09-09T14:56:31;0.60;;;0.40;;
41881;SDS011;27562;47.524;12.404;2022-09-09T14:58:59;1.83;;;0.50;;
41881;SDS011;27562;47.524;12.404;2022-09-09T15:01:26;2.90;;;0.90;;
41881;SDS011;27562;47.524;12.404;2022-09-09T15:03:53;1.75;;;0.65;;
41881;SDS011;27562;47.524;12.404;2022-09-09T15:06:23;1.95;;;0.90;;
41881;SDS011;27562;47.524;12.404;2022-09-09T15:08:51;1.70;;;0.80;;
41881;SDS011;27562;47.524;12.404;2022-09-09T15:11:18;1.10;;;0.60;;
41881;SDS011;27562;47.524;12.404;2022-09-09T15:13:45;1.20;;;0.60;;
41881;SDS011;27562;47.524;12.404;2022-09-09T15:16:13;1.38;;;0.75;;
41881;SDS011;27562;47.524;12.404;2022-09-09T15:18:41;1.50;;;0.65;;
41881;SDS011;27562;47.524;12.404;2022-09-09T15:21:14;1.17;;;0.60;;
41881;SDS011;27562;47.524;12.404;2022-09-09T15:23:41;4.88;;;0.80;;
41881;SDS011;27562;47.524;12.404;2022-09-09T15:26:10;2.25;;;0.90;;
41881;SDS011;27562;47.524;12.404;2022-09-09T15:28:39;1.67;;;0.57;;
41881;SDS011;27562;47.524;12.404;2022-09-09T15:31:19;1.50;;;0.82;;
41881;SDS011;27562;47.524;12.404;2022-09-09T15:33:49;1.95;;;0.75;;
41881;SDS011;27562;47.524;12.404;2022-09-09T15:36:17;1.85;;;0.70;;
41881;SDS011;27562;47.524;12.404;2022-09-09T15:38:51;1.17;;;0.50;;
41881;SDS011;27562;47.524;12.404;2022-09-09T15:41:18;2.35;;;0.93;;
41881;SDS011;27562;47.524;12.404;2022-09-09T15:43:45;2.33;;;0.68;;
41881;SDS011;27562;47.524;12.404;2022-09-09T15:46:32;1.52;;;0.80;;
41881;SDS011;27562;47.524;12.404;2022-09-09T15:51:34;2.17;;;0.82;;
41881;SDS011;27562;47.524;12.404;2022-09-09T15:54:00;1.70;;;0.80;;
41881;SDS011;27562;47.524;12.404;2022-09-09T15:56:26;1.60;;;0.82;;
41881;SDS011;27562;47.524;12.404;2022-09-09T15:58:54;2.13;;;0.75;;
41881;SDS011;27562;47.524;12.404;2022-09-09T16:01:20;1.33;;;0.60;;
41881;SDS011;27562;47.524;12.404;2022-09-09T16:03:46;1.70;;;0.80;;
41881;SDS011;27562;47.524;12.404;2022-09-09T16:06:15;1.65;;;0.65;;
41881;SDS011;27562;47.524;12.404;2022-09-09T16:08:43;0.93;;;0.63;;
41881;SDS011;27562;47.524;12.404;2022-09-09T16:11:15;4.80;;;0.93;;
41881;SDS011;27562;47.524;12.404;2022-09-09T16:13:45;1.13;;;0.60;;
41881;SDS011;27562;47.524;12.404;2022-09-09T16:16:12;1.30;;;0.70;;
41881;SDS011;27562;47.524;12.404;2022-09-09T16:18:39;1.27;;;0.70;;
41881;SDS011;27562;47.524;12.404;2022-09-09T16:21:20;1.65;;;0.70;;
41881;SDS011;27562;47.524;12.404;2022-09-09T16:23:49;1.48;;;0.70;;
41881;SDS011;27562;47.524;12.404;2022-09-09T16:26:16;1.88;;;0.70;;
41881;SDS011;27562;47.524;12.404;2022-09-09T16:28:43;2.05;;;0.80;;
41881;SDS011;27562;47.524;12.404;2022-09-09T16:31:13;1.25;;;0.60;;
41881;SDS011;27562;47.524;12.404;2022-09-09T16:33:40;1.35;;;0.70;;
41881;SDS011;27562;47.524;12.404;2022-09-09T16:36:07;1.73;;;0.80;;
41881;SDS011;27562;47.524;12.404;2022-09-09T16:38:37;0.98;;;0.50;;
41881;SDS011;27562;47.524;12.404;2022-09-09T16:41:04;1.40;;;0.65;;
41881;SDS011;27562;47.524;12.404;2022-09-09T16:43:34;2.42;;;0.77;;
41881;SDS011;27562;47.524;12.404;2022-09-09T16:46:03;2.00;;;0.90;;
41881;SDS011;27562;47.524;12.404;2022-09-09T16:48:40;2.28;;;1.02;;
41881;SDS011;27562;47.524;12.404;2022-09-09T16:51:09;2.20;;;0.90;;
41881;SDS011;27562;47.524;12.404;2022-09-09T16:53:39;1.70;;;0.80;;
41881;SDS011;27562;47.524;12.404;2022-09-09T16:56:07;1.60;;;0.90;;
41881;SDS011;27562;47.524;12.404;2022-09-09T16:58:34;1.65;;;0.80;;
41881;SDS011;27562;47.524;12.404;2022-09-09T17:01:00;1.98;;;0.90;;
41881;SDS011;27562;47.524;12.404;2022-09-09T17:03:29;3.10;;;0.80;;
41881;SDS011;27562;47.524;12.404;2022-09-09T17:05:56;1.92;;;0.77;;
41881;SDS011;27562;47.524;12.404;2022-09-09T17:08:23;1.27;;;0.70;;
41881;SDS011;27562;47.524;12.404;2022-09-09T17:10:49;1.70;;;0.93;;
41881;SDS011;27562;47.524;12.404;2022-09-09T17:13:15;2.38;;;0.70;;
41881;SDS011;27562;47.524;12.404;2022-09-09T17:15:43;2.60;;;1.00;;
41881;SDS011;27562;47.524;12.404;2022-09-09T17:18:09;2.38;;;1.00;;